Villa Alemana, Chile
Current Conditions -  °F | °C
As of 1:00 AM on Thursday 23 Oct 2014 (Local Time) from SCVM Reporting Station
Moderate Fog Moderate Fog  
Wind Chill: 52°   Ceiling: 100
Heat Index: 52°   Visibility: 0.31mi
Dew Point: 52°   Wind: 0mph
Humidity: 100%   Direction: NA
Pressure: 30"   Gusts: NA
Location:  33.04°S, 71.36°W
Report Text: SCVM 230500Z 00000KT 0500 FG OVC001 11/11 Q1016
Loading
Personal Weather Stations






























Interactive Weather Map
Tropical Storm Tracking
New forecast layout! Learn more

10-Day Weather Forecast

Advertisements
Track Severe Weather on mobile